Veracruz Airport, Mexico

10:54 PM CDT on July 24, 2014 (GMT -0500)
Gen Heriberto Jara International (MMVR) Elev 95 ft | 19.15 °N, 96.19 °W | Change Station

Current weather conditions updated 9 minutes ago

Clear
Clear
79 °F
Feels Like 79 °F
N
2
Wind Variable Wind from NE

Tomorrow is forecast to be nearly the same temperature as today.

Today
High -- | Low -- °F
--% Chance of Precip.
Yesterday
High -- | Low -- °F
Precip. -- in
6:58 AM 8:03 PM
Waning Crescent, 3% visible
Pressure 30.00 in
Visibility 7.0 miles
Clouds Clear
Dew Point 73 °F
Humidity 83%
Rainfall 3.05 in
Snow Depth Not available.
UV 0 out of 12
Pollen Not available.
Air Quality Not available.
Flu Activity Not available.
METAR MMVR 250345Z 04002KT 7SM SKC 26/23 A3000 RMK HZY

More Conditions Fewer Conditions

Pressure 30.00 in
Visibility 7.0 miles
Clouds Clear
Dew Point 73 °F
Humidity 83%
Rainfall 3.05 in
Snow Depth Not available.
UV 0 out of 12
Pollen Not available.
Air Quality Not available.
Flu Activity Not available.
METAR MMVR 250345Z 04002KT 7SM SKC 26/23 A3000 RMK HZY

More Conditions Fewer Conditions

10-Day Weather Forecast

Almanac

Astronomy

Jul. 24, 2014 Rise Set
Actual Time 6:58 AM CDT 8:03 PM CDT
Civil Twilight 6:35 AM CDT 8:27 PM CDT
Nautical Twilight 6:07 AM CDT 8:55 PM CDT
Astronomical Twilight 5:38 AM CDT 9:23 PM CDT
Moon 5:04 AM CDT (7/24) 6:23 PM CDT (7/24)
Length of Visible Light 13h 52m
Length of Day
13h 04m
Tomorrow will be 0m 42s shorter.
Waning Crescent, 3% of the Moon is Illuminated
Today
Waning Crescent
Jul 26
New
Aug 3
First Quarter
Aug 10
Full
Aug 17
Last Quarter

Today's Extremes

Country Highs Country Lows

Community

WunderPhotos

Upload Photos

1,737,231 photos uploaded!

Nearby

Snow Depth

Not available.

Earthquake Activity

City Distance Mag. Time & Date
No recent earthquake activity has been reported nearby.
Minimum magnitude displayed is 2.5.

Coastal Water Temperatures

Place Temperature
No Stations Reporting

Nearby Weather Stations

Station Location Temp. Heat Index Dew Point Humidity Wind Precip. Elev Updated Type
EMB Fraccionamiento Villa Rica, Veracruz 83.1 °F 94 °F 79 °F 88% NE  at  1.3 mph 0.00 in / hr 50 ft 10:54 PM CDT Rapid Fire
Punta Tiburon, Boca Del Rio 80.5 °F 85 °F 72 °F 75% NE  at  2.0 mph 0.00 in / hr 72 ft 10:50 PM CDT Normal

Show More Stations Show Fewer Stations